createdAt,value
2018-02-03T00:03:22.814Z,11.23
2018-02-03T00:08:24.220Z,11.90
2018-02-03T00:13:25.580Z,10.13
2018-02-03T00:18:26.900Z,9.40
2018-02-03T00:23:28.219Z,11.03
2018-02-03T00:28:29.518Z,12.33
2018-02-03T00:33:30.864Z,12.50
2018-02-03T00:38:32.207Z,13.23
2018-02-03T00:43:34.299Z,13.40
2018-02-03T00:48:35.630Z,11.67
2018-02-03T00:53:36.942Z,10.73
2018-02-03T00:58:38.268Z,11.00
2018-02-03T01:03:39.583Z,11.50
2018-02-03T01:08:40.918Z,10.03
2018-02-03T01:13:42.249Z,10.47
2018-02-03T01:18:44.334Z,9.13
2018-02-03T01:23:45.687Z,9.80
2018-02-03T01:28:47.015Z,7.83
2018-02-03T01:33:48.384Z,7.30
2018-02-03T01:38:49.703Z,7.90
2018-02-03T01:43:51.735Z,7.63
2018-02-03T01:48:53.071Z,8.17
2018-02-03T01:53:54.386Z,8.03
2018-02-03T01:58:55.691Z,8.00
2018-02-03T02:03:57.809Z,8.30
2018-02-03T02:08:59.549Z,8.97
2018-02-03T02:14:00.933Z,9.60
2018-02-03T02:19:02.473Z,9.20
2018-02-03T02:24:04.559Z,8.93
2018-02-03T02:29:05.912Z,9.37
2018-02-03T02:34:07.218Z,8.20
2018-02-03T02:39:08.543Z,8.70
2018-02-03T02:44:10.590Z,7.57
2018-02-03T02:49:11.916Z,6.70
2018-02-03T02:54:13.243Z,7.40
2018-02-03T02:59:14.554Z,6.07
2018-02-03T03:04:15.881Z,5.40
2018-02-03T03:09:17.210Z,5.60
2018-02-03T03:14:19.298Z,6.20
2018-02-03T03:19:20.619Z,6.73
2018-02-03T03:24:21.938Z,5.80
2018-02-03T03:29:23.267Z,5.60
2018-02-03T03:34:24.610Z,5.73
2018-02-03T03:39:25.946Z,5.33
2018-02-03T03:44:27.279Z,5.90
2018-02-03T03:49:28.606Z,6.40
2018-02-03T03:54:29.941Z,5.67
2018-02-03T03:59:31.270Z,4.97
2018-02-03T04:04:32.649Z,5.93
2018-02-03T04:09:34.013Z,6.30
2018-02-03T04:14:35.337Z,5.60
2018-02-03T04:19:36.693Z,5.40
2018-02-03T04:24:38.818Z,4.70
2018-02-03T04:29:40.158Z,5.60
2018-02-03T04:34:41.498Z,4.23
2018-02-03T04:39:42.834Z,4.27
2018-02-03T04:44:44.207Z,3.50
2018-02-03T04:49:45.565Z,5.30
2018-02-03T04:54:46.920Z,6.07
2018-02-03T04:59:48.982Z,3.70
2018-02-03T05:04:50.319Z,4.40
2018-02-03T05:09:51.645Z,4.10
2018-02-03T05:14:52.951Z,4.57
2018-02-03T05:19:54.275Z,5.37
2018-02-03T05:24:56.310Z,5.37
2018-02-03T05:29:57.610Z,5.50
2018-02-03T05:34:58.978Z,5.90
2018-02-03T05:40:00.307Z,5.67
2018-02-03T05:45:04.578Z,6.07
2018-02-03T05:50:05.934Z,6.60
2018-02-03T05:55:07.239Z,6.80
2018-02-03T06:00:08.602Z,5.87
2018-02-03T06:05:09.934Z,5.13
2018-02-03T06:10:11.270Z,5.80
2018-02-03T06:15:12.566Z,6.17
2018-02-03T06:20:13.963Z,6.43
2018-02-03T06:25:15.364Z,6.07
2018-02-03T06:30:16.706Z,5.63
2018-02-03T06:35:18.055Z,6.33
2018-02-03T06:40:19.514Z,5.47
2018-02-03T06:45:21.583Z,5.90
2018-02-03T06:50:22.915Z,5.97
2018-02-03T06:55:24.228Z,5.20
2018-02-03T07:00:26.259Z,5.40
2018-02-03T07:05:27.636Z,6.13
2018-02-03T07:10:29.039Z,5.47
2018-02-03T07:15:31.287Z,6.57
2018-02-03T07:20:33.654Z,5.37
2018-02-03T07:25:35.122Z,4.47
2018-02-03T07:30:36.512Z,4.60
2018-02-03T07:35:39.071Z,4.90
2018-02-03T07:40:40.406Z,4.70
2018-02-03T07:45:43.038Z,5.33
2018-02-03T07:50:44.434Z,5.00
2018-02-03T07:55:45.838Z,4.60
2018-02-03T08:00:47.147Z,5.17
2018-02-03T08:05:49.152Z,4.57
2018-02-03T08:10:51.162Z,4.53
2018-02-03T08:15:52.904Z,4.70
2018-02-03T08:20:54.310Z,4.10
2018-02-03T08:25:56.562Z,4.73
2018-02-03T08:30:58.021Z,4.90
2018-02-03T08:35:59.356Z,4.27
2018-02-03T08:41:00.894Z,4.37
2018-02-03T08:46:02.408Z,4.83
2018-02-03T08:51:03.789Z,3.90
2018-02-03T08:56:06.598Z,4.17
2018-02-03T09:01:07.955Z,4.23
2018-02-03T09:06:09.354Z,5.17
2018-02-03T09:11:10.711Z,4.60
2018-02-03T09:16:12.048Z,4.07
2018-02-03T09:21:14.266Z,4.13
2018-02-03T09:26:15.636Z,4.30
2018-02-03T09:31:17.784Z,4.70
2018-02-03T09:36:19.142Z,4.00
2018-02-03T09:41:21.231Z,5.27
2018-02-03T09:46:22.550Z,4.33
2018-02-03T09:51:23.966Z,3.70
2018-02-03T09:56:25.329Z,4.53
2018-02-03T10:01:27.402Z,4.90
2018-02-03T10:06:28.728Z,4.60
2018-02-03T10:11:30.114Z,4.47
2018-02-03T10:16:31.470Z,4.50
2018-02-03T10:21:32.822Z,4.70
2018-02-03T10:26:34.210Z,6.00
2018-02-03T10:31:35.574Z,5.50
2018-02-03T10:36:37.012Z,4.90
2018-02-03T10:41:38.356Z,5.70
2018-02-03T10:46:39.670Z,5.27
2018-02-03T10:51:41.010Z,4.23
2018-02-03T10:56:42.404Z,3.30
2018-02-03T11:01:44.475Z,3.90
2018-02-03T11:06:45.887Z,4.00
2018-02-03T11:11:47.211Z,5.37
2018-02-03T11:16:49.366Z,4.77
2018-02-03T11:21:50.804Z,4.50
2018-02-03T11:26:52.914Z,5.03
2018-02-03T11:31:54.237Z,5.40
2018-02-03T11:36:55.647Z,6.40
2018-02-03T11:41:56.986Z,6.07
2018-02-03T11:46:58.462Z,5.37
2018-02-03T11:52:01.184Z,5.40
2018-02-03T11:57:03.251Z,5.80
2018-02-03T12:02:04.596Z,5.07
2018-02-03T12:07:06.651Z,5.90
2018-02-03T12:12:07.974Z,6.50
2018-02-03T12:17:09.352Z,5.27
2018-02-03T12:22:10.727Z,6.37
2018-02-03T12:27:12.056Z,6.00
2018-02-03T12:32:13.393Z,6.47
2018-02-03T12:37:14.789Z,5.47
2018-02-03T12:42:16.921Z,6.30
2018-02-03T12:47:18.250Z,5.20
2018-02-03T12:52:19.626Z,5.13
2018-02-03T12:57:20.971Z,6.40
2018-02-03T13:02:22.278Z,11.60
2018-02-03T13:07:23.602Z,8.83
2018-02-03T13:12:24.986Z,7.27
2018-02-03T13:17:26.346Z,5.37
2018-02-03T13:22:27.673Z,6.60
2018-02-03T13:27:28.983Z,6.67
2018-02-03T13:32:30.374Z,9.70
2018-02-03T13:37:31.723Z,8.30
2018-02-03T13:42:33.066Z,8.63
2018-02-03T13:47:34.436Z,12.53
2018-02-03T13:52:35.783Z,10.67
2018-02-03T13:57:37.095Z,12.30
2018-02-03T14:02:38.410Z,7.30
2018-02-03T14:07:39.745Z,8.27
2018-02-03T14:12:41.087Z,6.23
2018-02-03T14:17:42.424Z,5.50
2018-02-03T14:22:43.754Z,5.07
2018-02-03T14:27:45.121Z,6.87
2018-02-03T14:32:47.174Z,7.67
2018-02-03T14:37:48.502Z,7.97
2018-02-03T14:42:50.023Z,7.10
2018-02-03T14:47:51.398Z,7.90
2018-02-03T14:52:53.467Z,8.60
2018-02-03T14:57:54.832Z,9.70
2018-02-03T15:02:56.131Z,10.53
2018-02-03T15:07:57.536Z,5.80
2018-02-03T15:12:59.164Z,7.00
2018-02-03T15:18:00.620Z,8.77
2018-02-03T15:23:01.998Z,8.50
2018-02-03T15:28:03.396Z,8.87
2018-02-03T15:33:04.732Z,9.60
2018-02-03T15:38:06.846Z,7.83
2018-02-03T15:43:08.927Z,9.57
2018-02-03T15:48:10.270Z,10.80
2018-02-03T15:53:11.619Z,11.13
2018-02-03T15:58:12.947Z,10.90
2018-02-03T16:03:14.285Z,11.40
2018-02-03T16:08:15.757Z,10.97
2018-02-03T16:13:17.102Z,10.87
2018-02-03T16:18:18.452Z,10.63
2018-02-03T16:23:19.774Z,10.80
2018-02-03T16:28:21.104Z,10.83
2018-02-03T16:33:22.417Z,9.90
2018-02-03T16:38:23.840Z,11.83
2018-02-03T16:43:25.930Z,18.77
2018-02-03T16:48:28.004Z,13.83
2018-02-03T16:53:29.319Z,11.80
2018-02-03T16:58:30.718Z,9.57
2018-02-03T17:03:32.785Z,11.80
2018-02-03T17:08:34.096Z,11.00
2018-02-03T17:13:35.435Z,9.90
2018-02-03T17:18:36.755Z,11.23
2018-02-03T17:23:38.139Z,8.80
2018-02-03T17:28:39.525Z,8.93
2018-02-03T17:33:40.909Z,9.30
2018-02-03T17:38:53.035Z,9.23
2018-02-03T17:43:54.339Z,9.00
2018-02-03T17:48:55.688Z,8.03
2018-02-03T17:53:57.973Z,7.93
2018-02-03T17:59:00.327Z,8.60
2018-02-03T18:04:01.655Z,8.73
2018-02-03T18:09:03.023Z,7.77
2018-02-03T18:14:04.348Z,9.47
2018-02-03T18:19:05.660Z,9.10
2018-02-03T18:24:07.016Z,7.90
2018-02-03T18:29:08.354Z,9.67
2018-02-03T18:34:10.093Z,10.50
2018-02-03T18:39:12.004Z,8.40
2018-02-03T18:44:13.399Z,7.27
2018-02-03T18:49:14.752Z,8.13
2018-02-03T18:54:16.214Z,8.17
2018-02-03T18:59:18.274Z,8.43
2018-02-03T19:04:19.624Z,9.00
2018-02-03T19:09:21.031Z,8.57
2018-02-03T19:14:22.378Z,8.53
2018-02-03T19:19:23.706Z,12.37
2018-02-03T19:24:25.763Z,7.87
2018-02-03T19:29:27.113Z,8.10
2018-02-03T19:34:28.559Z,7.80
2018-02-03T19:39:29.887Z,8.00
2018-02-03T19:44:31.987Z,7.83
2018-02-03T19:49:33.305Z,7.83
2018-02-03T19:54:34.618Z,7.50
2018-02-03T19:59:39.042Z,7.70
2018-02-03T20:04:40.427Z,9.30
2018-02-03T20:09:42.539Z,7.23
2018-02-03T20:14:43.846Z,6.37
2018-02-03T20:19:45.175Z,7.90
2018-02-03T20:24:46.514Z,6.03
2018-02-03T20:29:47.887Z,6.97
2018-02-03T20:34:50.016Z,7.13
2018-02-03T20:39:51.343Z,6.43
2018-02-03T20:44:52.672Z,6.40
2018-02-03T20:49:54.770Z,5.90
2018-02-03T20:54:56.842Z,7.07
2018-02-03T20:59:58.177Z,8.70
2018-02-03T21:05:00.231Z,7.00
2018-02-03T21:10:01.578Z,7.20
2018-02-03T21:15:03.680Z,7.47
2018-02-03T21:20:05.050Z,6.10
2018-02-03T21:25:06.391Z,6.63
2018-02-03T21:30:07.816Z,8.57
2018-02-03T21:35:09.226Z,9.20
2018-02-03T21:40:10.647Z,8.50
2018-02-03T21:45:11.970Z,9.53
2018-02-03T21:50:13.312Z,9.93
2018-02-03T21:55:15.392Z,11.20
2018-02-03T22:00:16.759Z,12.20
2018-02-03T22:05:18.283Z,13.77
2018-02-03T22:10:19.622Z,13.00
2018-02-03T22:15:21.042Z,14.43
2018-02-03T22:20:22.435Z,13.17
2018-02-03T22:25:23.831Z,12.57
2018-02-03T22:30:25.163Z,16.07
2018-02-03T22:35:26.537Z,13.80
2018-02-03T22:40:28.838Z,15.30
2018-02-03T22:45:30.220Z,15.37
2018-02-03T22:50:31.554Z,13.70
2018-02-03T22:55:32.924Z,15.10
2018-02-03T23:00:35.706Z,14.17
2018-02-03T23:05:35.707Z,13.83
2018-02-03T23:10:38.011Z,10.40
2018-02-03T23:15:40.146Z,11.23
2018-02-03T23:20:41.638Z,10.67
2018-02-03T23:25:42.949Z,8.90
2018-02-03T23:30:44.546Z,7.57
2018-02-03T23:35:45.953Z,7.37
2018-02-03T23:40:47.314Z,7.73
2018-02-03T23:45:48.646Z,7.33
2018-02-03T23:50:50.022Z,7.77
2018-02-03T23:55:51.334Z,8.10
